Time;durP1;ratioP1;P1;durP2;ratioP2;P2;SDS_P1;SDS_P2;PMS_P1;PMS_P2;Temp;Humidity;BMP_temperature;BMP_pressure;BME280_temperature;BME280_humidity;BME280_pressure;Samples;Min_cycle;Max_cycle;Signal;HPM_P1;HPM_P2
2021/05/28 00:01:15;;;;;;;15.80;11.53;;;10.30;99.90;;;;;;5021763;23;21038;-65
2021/05/28 00:03:42;;;;;;;11.37;10.37;;;10.40;99.90;;;;;;5014626;28;20453;-65
2021/05/28 00:06:08;;;;;;;11.30;10.27;;;10.40;99.90;;;;;;5014597;28;20472;-65
2021/05/28 00:08:35;;;;;;;16.23;11.50;;;10.50;99.90;;;;;;5014624;28;20449;-65
2021/05/28 00:11:02;;;;;;;11.87;10.70;;;10.50;99.90;;;;;;5014757;28;20497;-66
2021/05/28 00:13:28;;;;;;;12.67;10.20;;;10.50;99.90;;;;;;5014853;28;20500;-66
2021/05/28 00:15:54;;;;;;;16.90;10.43;;;10.50;99.90;;;;;;5014843;28;20474;-66
2021/05/28 00:18:20;;;;;;;11.50;10.53;;;10.50;99.90;;;;;;5014590;28;20469;-65
2021/05/28 00:20:47;;;;;;;11.83;10.57;;;10.50;99.90;;;;;;5014704;28;20470;-65
2021/05/28 00:23:13;;;;;;;13.70;11.20;;;10.50;99.90;;;;;;5014711;28;20460;-65
2021/05/28 00:25:40;;;;;;;11.73;10.67;;;10.50;99.90;;;;;;5014648;28;20537;-65
2021/05/28 00:28:06;;;;;;;11.50;10.57;;;10.50;99.90;;;;;;5014345;28;20504;-64
2021/05/28 00:30:33;;;;;;;13.50;12.53;;;10.50;99.90;;;;;;5014447;28;20476;-64
2021/05/28 00:32:59;;;;;;;12.00;10.20;;;10.60;99.90;;;;;;5014382;28;20455;-65
2021/05/28 00:35:25;;;;;;;16.03;10.53;;;10.60;99.90;;;;;;5014409;28;20489;-66
2021/05/28 00:37:51;;;;;;;12.63;11.53;;;10.50;99.90;;;;;;5014110;28;20937;-63
2021/05/28 00:40:18;;;;;;;12.20;10.90;;;10.50;99.90;;;;;;5014302;28;20469;-64
2021/05/28 00:42:45;;;;;;;13.10;11.87;;;10.50;99.90;;;;;;5014241;28;20446;-64
2021/05/28 00:45:12;;;;;;;11.40;10.60;;;10.50;99.90;;;;;;5014499;28;20526;-67
2021/05/28 00:47:38;;;;;;;17.47;11.03;;;10.40;99.90;;;;;;5014004;28;20941;-64
2021/05/28 00:50:06;;;;;;;13.17;11.97;;;10.40;99.90;;;;;;5014148;28;20469;-64
2021/05/28 00:52:32;;;;;;;11.93;10.90;;;10.40;99.90;;;;;;5014185;28;20446;-63
2021/05/28 00:54:59;;;;;;;12.67;11.57;;;10.40;99.90;;;;;;5014058;28;20486;-64
2021/05/28 00:57:27;;;;;;;12.50;11.20;;;10.40;99.90;;;;;;5013939;28;20454;-66
2021/05/28 00:59:56;;;;;;;12.27;11.40;;;10.40;99.90;;;;;;5013751;28;20509;-63
2021/05/28 01:02:23;;;;;;;14.33;10.87;;;10.30;99.90;;;;;;5013871;28;20452;-64
2021/05/28 01:04:49;;;;;;;13.97;11.50;;;10.20;99.90;;;;;;5013918;28;20446;-64
2021/05/28 01:07:15;;;;;;;12.63;11.43;;;10.10;99.90;;;;;;5013611;28;20449;-63
2021/05/28 01:09:42;;;;;;;13.07;11.73;;;10.00;99.90;;;;;;5013806;28;20528;-64
2021/05/28 01:12:09;;;;;;;12.50;11.23;;;10.00;99.90;;;;;;5013092;28;21051;-63
2021/05/28 01:14:35;;;;;;;12.60;11.30;;;9.90;99.90;;;;;;5013660;28;20637;-63
2021/05/28 01:17:02;;;;;;;15.27;13.90;;;9.80;99.90;;;;;;5013476;28;20449;-64
2021/05/28 01:19:28;;;;;;;13.13;11.83;;;9.80;99.90;;;;;;5013544;28;20468;-66
2021/05/28 01:21:56;;;;;;;12.87;11.77;;;9.70;99.90;;;;;;5013403;28;20469;-64
2021/05/28 01:24:23;;;;;;;12.37;11.17;;;9.60;99.90;;;;;;5013631;28;20949;-64
2021/05/28 01:26:49;;;;;;;14.00;12.03;;;9.60;99.90;;;;;;5013258;28;20450;-64
2021/05/28 01:29:16;;;;;;;13.07;11.60;;;9.50;99.90;;;;;;5013421;28;20941;-66
2021/05/28 01:31:42;;;;;;;13.90;12.50;;;9.50;99.90;;;;;;5013280;28;21008;-63
2021/05/28 01:34:08;;;;;;;15.37;13.97;;;9.40;99.90;;;;;;5013336;28;20500;-63
2021/05/28 01:36:34;;;;;;;15.33;12.80;;;9.30;99.90;;;;;;5013125;28;20516;-64
2021/05/28 01:39:01;;;;;;;17.00;14.63;;;9.30;99.90;;;;;;5013406;28;20469;-67
2021/05/28 01:41:31;;;;;;;16.17;14.73;;;9.30;99.90;;;;;;5013130;28;20466;-66
2021/05/28 01:43:57;;;;;;;16.33;14.77;;;9.20;99.90;;;;;;5013290;28;20446;-65
2021/05/28 01:46:24;;;;;;;15.07;13.80;;;9.20;99.90;;;;;;5013080;28;20438;-66
2021/05/28 01:48:51;;;;;;;20.40;15.67;;;9.10;99.90;;;;;;5013127;28;20508;-65
2021/05/28 01:51:18;;;;;;;16.93;13.63;;;9.10;99.90;;;;;;5012978;28;20823;-66
2021/05/28 01:53:44;;;;;;;20.30;15.87;;;9.00;99.90;;;;;;5013012;28;20504;-66
2021/05/28 01:56:10;;;;;;;16.10;14.60;;;9.00;99.90;;;;;;5012937;28;20482;-65
2021/05/28 01:58:38;;;;;;;19.10;14.13;;;9.00;99.90;;;;;;5012909;28;20526;-66
2021/05/28 02:01:04;;;;;;;18.80;15.23;;;8.90;99.90;;;;;;5012786;28;21167;-66
2021/05/28 02:03:30;;;;;;;18.43;16.30;;;8.90;99.90;;;;;;5012758;28;20813;-66
2021/05/28 02:05:57;;;;;;;19.30;16.50;;;8.90;99.90;;;;;;5012716;28;21011;-65
2021/05/28 02:08:23;;;;;;;17.37;15.23;;;8.90;99.90;;;;;;5012562;28;20454;-65
2021/05/28 02:10:50;;;;;;;21.20;15.53;;;8.90;99.90;;;;;;5012578;28;20466;-65
2021/05/28 02:13:16;;;;;;;18.37;16.17;;;8.90;99.90;;;;;;5012709;28;20450;-65
2021/05/28 02:15:43;;;;;;;20.53;14.87;;;8.90;99.90;;;;;;5012505;28;20485;-66
2021/05/28 02:18:10;;;;;;;21.63;18.47;;;8.90;99.90;;;;;;5012332;28;20445;-67
2021/05/28 02:20:36;;;;;;;18.53;16.40;;;8.80;99.90;;;;;;5012464;28;20527;-65
2021/05/28 02:23:03;;;;;;;21.50;17.63;;;8.80;99.90;;;;;;5011548;28;20873;-65
2021/05/28 02:25:29;;;;;;;18.60;16.67;;;8.80;99.90;;;;;;5012585;28;20453;-66
2021/05/28 02:27:56;;;;;;;23.23;17.53;;;8.70;99.90;;;;;;5012188;28;20471;-65
2021/05/28 02:30:22;;;;;;;26.73;17.73;;;8.70;99.90;;;;;;5012449;28;20977;-65
2021/05/28 02:32:49;;;;;;;20.97;16.10;;;8.70;99.90;;;;;;5012165;28;20508;-65
2021/05/28 02:35:15;;;;;;;15.47;14.00;;;8.70;99.90;;;;;;5012236;28;20489;-65
2021/05/28 02:37:42;;;;;;;20.40;14.90;;;8.60;99.90;;;;;;5012054;28;20449;-67
2021/05/28 02:40:09;;;;;;;21.70;19.43;;;8.60;99.90;;;;;;5012192;28;20466;-67
2021/05/28 02:42:36;;;;;;;20.70;18.57;;;8.50;99.90;;;;;;5012129;28;20442;-66
2021/05/28 02:45:04;;;;;;;21.00;18.40;;;8.50;99.90;;;;;;5012130;28;20441;-65
2021/05/28 02:47:30;;;;;;;22.77;19.60;;;8.50;99.90;;;;;;5011955;28;20832;-67
2021/05/28 02:49:57;;;;;;;21.97;16.60;;;8.40;99.90;;;;;;5011976;28;20446;-66
2021/05/28 02:52:23;;;;;;;21.57;17.57;;;8.30;99.90;;;;;;5012040;28;20497;-65
2021/05/28 02:54:50;;;;;;;21.07;18.70;;;8.20;99.90;;;;;;5011954;28;20474;-65
2021/05/28 02:57:16;;;;;;;19.47;17.47;;;8.10;99.90;;;;;;5011758;28;20446;-65
2021/05/28 02:59:42;;;;;;;21.10;18.73;;;8.00;99.90;;;;;;5011817;28;20446;-65
2021/05/28 03:02:08;;;;;;;24.40;18.93;;;7.90;99.90;;;;;;5011828;28;20496;-66
2021/05/28 03:04:35;;;;;;;21.33;18.40;;;7.90;99.90;;;;;;5011952;28;20497;-65
2021/05/28 03:07:03;;;;;;;27.27;20.40;;;7.80;99.90;;;;;;5011624;28;20446;-66
2021/05/28 03:09:29;;;;;;;22.63;20.33;;;7.70;99.90;;;;;;5011930;28;20453;-65
2021/05/28 03:11:55;;;;;;;24.80;19.60;;;7.60;99.90;;;;;;5011697;28;20548;-66
2021/05/28 03:14:21;;;;;;;36.30;25.40;;;7.60;99.90;;;;;;5012031;28;20801;-66
2021/05/28 03:16:47;;;;;;;30.13;21.70;;;7.50;99.90;;;;;;5011439;28;20468;-65
2021/05/28 03:19:21;;;;;;;23.30;20.80;;;7.50;99.90;;;;;;5011819;28;20442;-66
2021/05/28 03:24:32;;;;;;;30.77;22.80;;;7.50;99.90;;;;;;5011962;28;20419;-66
2021/05/28 03:26:58;;;;;;;26.53;22.77;;;7.50;99.90;;;;;;5011583;28;20937;-66
2021/05/28 03:29:25;;;;;;;28.67;23.47;;;7.50;99.90;;;;;;5011573;28;20434;-66
2021/05/28 03:31:51;;;;;;;27.30;21.70;;;7.50;99.90;;;;;;5011441;28;20995;-66
2021/05/28 03:34:17;;;;;;;28.57;22.53;;;7.60;99.90;;;;;;5012987;28;20812;-65
2021/05/28 03:36:44;;;;;;;24.80;21.43;;;7.50;99.90;;;;;;5015196;28;20484;-65
2021/05/28 03:39:10;;;;;;;32.43;22.83;;;7.50;99.90;;;;;;5015477;28;20453;-66
2021/05/28 03:41:37;;;;;;;30.13;23.47;;;7.50;99.90;;;;;;5015355;28;20470;-64
2021/05/28 03:44:04;;;;;;;29.77;23.37;;;7.50;99.90;;;;;;5015513;28;20955;-65
2021/05/28 03:46:30;;;;;;;31.30;23.40;;;7.40;99.90;;;;;;5015156;28;20808;-65
2021/05/28 03:48:56;;;;;;;39.03;27.83;;;7.50;99.90;;;;;;5015346;28;20450;-65
2021/05/28 03:51:23;;;;;;;30.17;22.07;;;7.50;99.90;;;;;;5015220;28;20593;-65
2021/05/28 03:53:49;;;;;;;29.93;23.93;;;7.50;99.90;;;;;;5015145;28;20446;-67
2021/05/28 03:56:15;;;;;;;35.17;27.07;;;7.40;99.90;;;;;;5015166;28;21048;-67
2021/05/28 03:58:43;;;;;;;29.17;24.13;;;7.40;99.90;;;;;;5015006;28;20466;-66
2021/05/28 04:01:09;;;;;;;33.60;26.27;;;7.50;99.90;;;;;;5014979;28;20488;-66
2021/05/28 04:03:36;;;;;;;32.10;24.90;;;7.50;99.90;;;;;;5015072;28;20868;-66
2021/05/28 04:06:03;;;;;;;33.00;24.23;;;7.50;99.90;;;;;;5015146;28;20434;-65
2021/05/28 04:08:29;;;;;;;38.33;25.23;;;7.50;99.90;;;;;;5014693;28;20500;-65
2021/05/28 04:10:55;;;;;;;35.87;26.37;;;7.60;99.90;;;;;;5014979;28;20477;-65
2021/05/28 04:13:21;;;;;;;40.90;27.63;;;7.70;99.90;;;;;;5014859;28;20933;-65
2021/05/28 04:15:48;;;;;;;35.33;28.40;;;7.80;99.90;;;;;;5014686;28;20473;-65
2021/05/28 04:18:15;;;;;;;38.30;26.57;;;7.90;99.90;;;;;;5014560;28;20445;-65
2021/05/28 04:20:44;;;;;;;35.90;26.50;;;8.00;99.90;;;;;;5014766;28;20469;-66
2021/05/28 04:23:10;;;;;;;35.33;26.30;;;8.10;99.90;;;;;;5014609;28;20438;-66
2021/05/28 04:25:36;;;;;;;29.30;23.03;;;8.30;99.90;;;;;;5014661;28;20446;-66
2021/05/28 04:28:02;;;;;;;33.07;26.50;;;8.40;99.90;;;;;;5014435;28;20449;-65
2021/05/28 04:30:28;;;;;;;28.33;20.67;;;8.50;99.90;;;;;;5014405;28;20481;-66
2021/05/28 04:32:55;;;;;;;27.33;20.83;;;8.70;99.90;;;;;;5014494;28;20446;-66
2021/05/28 04:35:22;;;;;;;29.37;19.07;;;8.90;99.90;;;;;;5014320;28;20485;-66
2021/05/28 04:37:48;;;;;;;30.80;22.50;;;9.00;99.90;;;;;;5014357;28;20979;-65
2021/05/28 04:40:15;;;;;;;24.17;20.63;;;9.10;99.90;;;;;;5014308;28;20470;-66
2021/05/28 04:42:41;;;;;;;24.40;20.67;;;9.20;99.90;;;;;;5014112;28;20501;-65
2021/05/28 04:45:08;;;;;;;28.90;19.80;;;9.30;99.90;;;;;;5013656;28;20434;-66
2021/05/28 04:47:34;;;;;;;41.73;23.40;;;9.40;99.90;;;;;;5013430;28;20445;-66
2021/05/28 04:50:01;;;;;;;39.47;27.47;;;9.40;99.90;;;;;;5014113;28;20450;-67
2021/05/28 04:52:27;;;;;;;56.23;27.73;;;9.40;99.90;;;;;;5014168;28;20949;-66
2021/05/28 04:54:54;;;;;;;40.20;28.10;;;9.50;99.90;;;;;;5013984;28;20477;-67
2021/05/28 04:57:22;;;;;;;51.93;30.43;;;9.60;99.90;;;;;;5006868;28;20445;-66
2021/05/28 04:59:48;;;;;;;37.37;26.47;;;9.60;99.90;;;;;;5002173;28;20453;-66
2021/05/28 05:02:14;;;;;;;35.80;25.47;;;9.70;99.90;;;;;;5002991;28;20454;-66
2021/05/28 05:04:40;;;;;;;44.57;27.40;;;9.70;99.90;;;;;;5003143;28;20821;-66
2021/05/28 05:07:07;;;;;;;44.63;30.30;;;9.80;99.90;;;;;;5002087;28;20450;-66
2021/05/28 05:09:34;;;;;;;54.40;32.00;;;9.90;99.90;;;;;;5002495;28;20460;-65
2021/05/28 05:12:00;;;;;;;49.67;30.30;;;9.90;99.90;;;;;;5002056;28;20508;-65
2021/05/28 05:14:26;;;;;;;46.17;30.63;;;9.90;99.90;;;;;;5001787;28;20453;-65
2021/05/28 05:16:52;;;;;;;46.43;28.50;;;9.90;99.90;;;;;;5001672;28;21332;-65
2021/05/28 05:19:19;;;;;;;54.73;31.93;;;10.00;99.90;;;;;;5001641;28;20458;-66
2021/05/28 05:21:45;;;;;;;50.20;30.97;;;10.00;99.90;;;;;;5001924;28;20465;-65
2021/05/28 05:24:13;;;;;;;59.23;31.63;;;10.00;99.90;;;;;;5002098;28;20524;-65
2021/05/28 05:26:39;;;;;;;46.70;29.83;;;10.00;99.90;;;;;;5002799;28;21022;-66
2021/05/28 05:29:06;;;;;;;55.30;31.40;;;10.10;99.90;;;;;;5002412;28;20454;-66
2021/05/28 05:31:32;;;;;;;49.03;30.37;;;10.20;99.90;;;;;;5001740;28;21181;-66
2021/05/28 05:33:58;;;;;;;53.13;32.33;;;10.20;99.90;;;;;;5001720;28;20461;-66
2021/05/28 05:36:25;;;;;;;49.03;31.07;;;10.30;99.90;;;;;;5001628;28;20516;-66
2021/05/28 05:38:52;;;;;;;51.60;29.70;;;10.30;99.90;;;;;;5001627;28;20450;-66
2021/05/28 05:41:19;;;;;;;55.13;33.03;;;10.30;99.90;;;;;;5001494;28;20462;-65
2021/05/28 05:43:46;;;;;;;50.57;31.77;;;10.30;99.90;;;;;;5001572;28;20454;-66
2021/05/28 05:46:12;;;;;;;58.80;31.90;;;10.30;99.90;;;;;;5001514;28;20442;-66
2021/05/28 05:48:39;;;;;;;48.30;32.00;;;10.30;99.90;;;;;;5001274;28;20492;-66
2021/05/28 05:51:05;;;;;;;52.97;32.97;;;10.40;99.90;;;;;;5001336;28;20465;-66
2021/05/28 05:53:31;;;;;;;50.37;31.30;;;10.50;99.90;;;;;;5001336;28;20944;-66
2021/05/28 05:55:59;;;;;;;52.22;35.78;;;10.60;99.90;;;;;;5000245;28;20529;-65
2021/05/28 05:58:26;;;;;;;47.23;33.37;;;10.80;99.90;;;;;;5000894;28;20299;-65
2021/05/28 06:00:52;;;;;;;48.13;35.50;;;10.90;99.90;;;;;;5001558;28;20841;-65
2021/05/28 06:03:19;;;;;;;40.97;31.50;;;11.10;99.90;;;;;;5001282;28;20453;-66
2021/05/28 06:05:45;;;;;;;42.33;33.27;;;11.20;99.90;;;;;;5001141;28;20457;-66
2021/05/28 06:08:11;;;;;;;42.43;30.97;;;11.30;99.90;;;;;;5000986;28;20520;-66
2021/05/28 06:10:38;;;;;;;41.10;32.47;;;11.40;99.90;;;;;;5001132;28;20528;-67
2021/05/28 06:13:04;;;;;;;41.23;30.10;;;11.50;99.90;;;;;;5000867;28;20449;-67
2021/05/28 06:15:33;;;;;;;33.87;29.90;;;11.60;99.90;;;;;;5000777;28;20488;-66
2021/05/28 06:17:59;;;;;;;40.53;33.53;;;11.60;99.90;;;;;;5001133;28;20461;-66
2021/05/28 06:20:25;;;;;;;38.83;32.20;;;11.70;99.90;;;;;;5001207;28;20982;-65
2021/05/28 06:22:52;;;;;;;38.90;32.27;;;11.70;99.90;;;;;;5000922;28;20500;-66
2021/05/28 06:25:18;;;;;;;38.00;29.47;;;11.80;99.90;;;;;;5001228;28;20468;-66
2021/05/28 06:27:44;;;;;;;37.17;31.60;;;12.00;99.90;;;;;;5000921;28;20508;-66
2021/05/28 06:30:12;;;;;;;34.50;30.93;;;12.10;99.90;;;;;;5000608;28;20477;-66
2021/05/28 06:32:40;;;;;;;32.70;29.60;;;12.20;99.90;;;;;;5002411;28;20449;-67
2021/05/28 06:35:07;;;;;;;34.80;31.00;;;12.40;99.90;;;;;;5012152;28;20477;-67
2021/05/28 06:37:33;;;;;;;32.17;29.07;;;12.50;99.90;;;;;;5012192;28;20537;-65
2021/05/28 06:39:59;;;;;;;29.97;27.27;;;12.60;99.90;;;;;;5012350;28;20833;-65
2021/05/28 06:42:26;;;;;;;31.30;28.30;;;12.70;99.90;;;;;;5012136;28;20442;-65
2021/05/28 06:44:52;;;;;;;29.27;26.50;;;12.80;99.90;;;;;;5012111;28;20441;-65
2021/05/28 06:47:18;;;;;;;31.27;28.40;;;13.00;99.90;;;;;;5012061;28;20489;-64
2021/05/28 06:49:45;;;;;;;30.40;28.00;;;13.00;99.90;;;;;;5011962;28;20442;-65
2021/05/28 06:52:12;;;;;;;29.17;26.43;;;13.10;99.90;;;;;;5012101;28;20995;-64
2021/05/28 06:54:38;;;;;;;30.93;28.20;;;13.30;99.90;;;;;;5011991;28;20446;-64
2021/05/28 06:57:04;;;;;;;29.90;27.13;;;13.40;99.90;;;;;;5011823;28;20485;-64
2021/05/28 06:59:31;;;;;;;28.80;26.50;;;13.50;99.90;;;;;;5011890;28;20960;-63
2021/05/28 07:01:57;;;;;;;32.03;29.43;;;13.70;99.90;;;;;;5011920;28;20478;-65
2021/05/28 07:04:23;;;;;;;29.73;27.07;;;13.80;99.90;;;;;;5011879;28;20450;-64
2021/05/28 07:06:51;;;;;;;34.80;31.50;;;14.00;99.90;;;;;;5011857;28;20446;-64
2021/05/28 07:09:17;;;;;;;30.63;28.03;;;14.20;99.90;;;;;;5011034;28;20442;-64
2021/05/28 07:11:43;;;;;;;33.03;29.70;;;14.30;99.90;;;;;;5011553;28;20469;-64
2021/05/28 07:14:09;;;;;;;32.83;29.53;;;14.30;99.90;;;;;;5011681;28;20450;-63
2021/05/28 07:16:36;;;;;;;32.80;29.73;;;14.30;99.90;;;;;;5011524;28;20477;-64
2021/05/28 07:19:04;;;;;;;34.73;31.37;;;14.50;99.90;;;;;;5011488;28;20449;-64
2021/05/28 07:21:30;;;;;;;38.93;34.73;;;14.60;99.90;;;;;;5011537;28;20473;-64
2021/05/28 07:23:57;;;;;;;36.53;33.03;;;14.50;99.90;;;;;;5011482;28;20442;-64
2021/05/28 07:26:23;;;;;;;36.97;33.03;;;14.30;99.90;;;;;;5011570;28;20442;-65
2021/05/28 07:28:49;;;;;;;34.43;31.00;;;14.20;99.90;;;;;;5011446;28;20795;-65
2021/05/28 07:31:15;;;;;;;38.53;34.40;;;14.20;99.90;;;;;;5011330;28;20469;-65
2021/05/28 07:33:42;;;;;;;37.13;33.23;;;14.00;99.90;;;;;;5011405;28;20446;-64
2021/05/28 07:36:09;;;;;;;36.10;32.60;;;14.00;99.90;;;;;;5011279;28;21012;-64
2021/05/28 07:38:35;;;;;;;34.73;31.80;;;14.00;99.90;;;;;;5011235;28;20481;-63
2021/05/28 07:41:02;;;;;;;36.23;31.80;;;14.10;99.90;;;;;;5011336;28;20474;-64
2021/05/28 07:43:28;;;;;;;35.67;32.07;;;14.30;99.90;;;;;;5011299;28;20500;-64
2021/05/28 07:45:57;;;;;;;35.27;32.10;;;14.90;99.90;;;;;;5011343;28;20438;-64
2021/05/28 07:48:23;;;;;;;35.63;32.10;;;14.90;99.90;;;;;;5011091;28;20481;-63
2021/05/28 07:50:50;;;;;;;36.73;33.23;;;14.90;99.90;;;;;;5011363;28;20840;-63
2021/05/28 07:53:19;;;;;;;37.50;34.20;;;14.70;99.90;;;;;;5011297;28;20512;-63
2021/05/28 07:55:46;;;;;;;36.07;32.43;;;14.70;99.90;;;;;;5011161;28;20486;-63
2021/05/28 07:58:13;;;;;;;36.73;33.00;;;14.60;99.90;;;;;;5010998;28;20442;-64
2021/05/28 08:00:39;;;;;;;36.77;33.07;;;14.50;99.90;;;;;;5011066;28;20473;-65
2021/05/28 08:03:05;;;;;;;36.57;33.00;;;14.30;99.90;;;;;;5011171;28;20552;-64
2021/05/28 08:05:32;;;;;;;36.13;32.93;;;14.20;99.90;;;;;;5011189;28;20446;-64
2021/05/28 08:08:00;;;;;;;35.43;32.30;;;14.30;99.90;;;;;;5010985;28;20450;-64
2021/05/28 08:10:29;;;;;;;34.33;30.97;;;14.40;99.90;;;;;;5010979;28;20560;-64
2021/05/28 08:12:55;;;;;;;35.57;32.07;;;14.40;99.90;;;;;;5011195;28;20452;-65
2021/05/28 08:15:23;;;;;;;36.70;33.10;;;14.40;99.90;;;;;;5010898;28;20493;-65
2021/05/28 08:17:50;;;;;;;38.33;33.80;;;14.60;99.90;;;;;;5010877;28;20446;-64
2021/05/28 08:20:17;;;;;;;34.20;31.30;;;14.60;99.90;;;;;;5012116;28;20472;-64
2021/05/28 08:22:45;;;;;;;35.47;32.07;;;14.80;99.90;;;;;;5014649;28;20441;-64
2021/05/28 08:25:12;;;;;;;34.63;31.00;;;14.80;99.90;;;;;;5014522;28;20445;-64
2021/05/28 08:27:38;;;;;;;35.00;31.47;;;14.90;99.90;;;;;;5014405;28;20442;-65
2021/05/28 08:30:06;;;;;;;32.53;29.47;;;15.00;99.90;;;;;;5014512;28;20466;-65
2021/05/28 08:32:33;;;;;;;32.63;29.53;;;15.10;99.90;;;;;;5014290;28;20450;-63
2021/05/28 08:34:59;;;;;;;34.27;30.97;;;15.20;99.90;;;;;;5014173;28;20446;-64
2021/05/28 08:37:26;;;;;;;33.50;30.60;;;14.90;99.90;;;;;;5014406;28;20469;-64
2021/05/28 08:39:52;;;;;;;32.33;29.40;;;14.90;99.90;;;;;;5014101;28;20449;-64
2021/05/28 08:42:20;;;;;;;33.60;30.40;;;14.80;99.90;;;;;;5014151;28;21003;-64
2021/05/28 08:44:48;;;;;;;31.90;29.20;;;14.80;99.90;;;;;;5014255;28;20453;-64
2021/05/28 08:47:15;;;;;;;34.50;31.03;;;14.80;99.90;;;;;;5013843;28;20449;-64
2021/05/28 08:49:46;;;;;;;32.30;29.63;;;14.90;99.90;;;;;;5013993;28;20450;-64
2021/05/28 08:52:12;;;;;;;33.90;30.77;;;14.80;99.90;;;;;;5014105;28;20457;-64
2021/05/28 08:54:39;;;;;;;32.53;29.60;;;14.80;99.90;;;;;;5013840;28;20446;-65
2021/05/28 08:57:05;;;;;;;35.47;31.97;;;14.90;99.90;;;;;;5013722;28;20478;-64
2021/05/28 08:59:31;;;;;;;33.40;30.47;;;14.90;99.90;;;;;;5013899;28;20790;-64
2021/05/28 09:01:57;;;;;;;33.00;30.30;;;15.10;99.90;;;;;;5013737;28;20540;-65
2021/05/28 09:04:24;;;;;;;32.87;30.07;;;15.30;99.90;;;;;;5013695;28;20442;-64
2021/05/28 09:06:51;;;;;;;32.97;30.20;;;15.60;99.90;;;;;;5013758;28;20820;-64
2021/05/28 09:09:18;;;;;;;32.67;29.90;;;16.10;99.90;;;;;;5013321;28;20954;-64
2021/05/28 09:11:53;;;;;;;33.50;30.87;;;16.20;99.90;;;;;;5013509;28;20625;-64
2021/05/28 09:14:36;;;;;;;33.60;30.70;;;16.30;99.90;;;;;;5013539;28;20481;-64
2021/05/28 09:17:04;;;;;;;32.77;29.70;;;16.40;99.90;;;;;;5013297;28;20482;-63
2021/05/28 09:19:30;;;;;;;30.33;28.10;;;16.60;99.90;;;;;;5013444;28;20795;-62
2021/05/28 09:21:59;;;;;;;31.00;28.70;;;16.90;99.90;;;;;;5013251;28;20846;-63
2021/05/28 09:24:28;;;;;;;31.57;29.00;;;17.40;99.90;;;;;;5013377;28;20814;-65
2021/05/28 09:26:55;;;;;;;31.43;28.97;;;17.80;99.90;;;;;;5013451;28;20749;-64
2021/05/28 09:29:21;;;;;;;31.20;28.10;;;17.70;99.90;;;;;;5012997;28;20450;-64
2021/05/28 09:31:47;;;;;;;30.30;28.10;;;17.10;99.90;;;;;;5012587;28;20541;-62
2021/05/28 09:34:13;;;;;;;31.33;28.83;;;17.00;99.90;;;;;;5013226;28;20446;-63
2021/05/28 09:36:40;;;;;;;34.27;30.90;;;16.80;99.90;;;;;;5013023;28;20478;-63
2021/05/28 09:39:10;;;;;;;32.97;29.87;;;16.90;99.90;;;;;;5013011;28;20446;-64
2021/05/28 09:41:43;;;;;;;35.47;32.30;;;16.80;99.90;;;;;;5012975;28;20462;-62
2021/05/28 09:44:12;;;;;;;34.53;31.53;;;16.90;99.90;;;;;;5013052;28;20496;-64
2021/05/28 09:46:39;;;;;;;37.10;32.47;;;16.80;99.90;;;;;;5013099;28;20533;-64
2021/05/28 09:49:10;;;;;;;31.70;29.17;;;17.00;99.90;;;;;;5012721;28;20450;-64
2021/05/28 09:51:38;;;;;;;31.20;28.90;;;17.10;99.90;;;;;;5012883;28;20549;-64
2021/05/28 09:54:16;;;;;;;31.13;28.80;;;17.60;99.90;;;;;;5012946;28;20545;-64
2021/05/28 09:56:44;;;;;;;30.40;28.20;;;17.90;99.90;;;;;;5012805;28;20485;-64
2021/05/28 09:59:10;;;;;;;29.53;27.60;;;17.70;98.70;;;;;;5012540;28;20480;-64
2021/05/28 10:01:38;;;;;;;28.47;26.30;;;17.30;98.30;;;;;;5012514;28;20840;-64
2021/05/28 10:04:06;;;;;;;28.40;26.47;;;17.10;99.90;;;;;;5012684;28;20442;-63
2021/05/28 10:06:35;;;;;;;27.70;25.80;;;17.60;99.10;;;;;;5012639;28;20484;-64
2021/05/28 10:09:05;;;;;;;27.37;25.53;;;17.70;98.70;;;;;;5012480;28;20446;-63
2021/05/28 10:11:32;;;;;;;26.70;25.20;;;18.00;98.40;;;;;;5012672;28;20473;-64
2021/05/28 10:13:58;;;;;;;26.70;24.60;;;18.50;96.60;;;;;;5012514;28;20442;-64
2021/05/28 10:16:25;;;;;;;27.77;25.87;;;19.10;94.60;;;;;;5012525;28;21055;-64
2021/05/28 10:18:52;;;;;;;25.63;23.90;;;18.70;91.80;;;;;;5012223;28;20458;-62
2021/05/28 10:21:18;;;;;;;26.93;25.13;;;18.80;92.30;;;;;;5012364;28;20461;-63
2021/05/28 10:23:45;;;;;;;26.93;24.93;;;19.10;92.20;;;;;;5012324;28;20449;-64
2021/05/28 10:26:13;;;;;;;27.37;25.40;;;19.50;91.00;;;;;;5012265;28;20791;-65
2021/05/28 10:28:43;;;;;;;26.27;24.67;;;20.10;89.70;;;;;;5012085;28;20499;-64
2021/05/28 10:31:10;;;;;;;28.77;26.30;;;20.10;83.90;;;;;;5011975;28;20474;-63
2021/05/28 10:33:42;;;;;;;28.03;26.00;;;20.20;82.80;;;;;;5012127;28;20449;-64
2021/05/28 10:36:09;;;;;;;27.73;25.63;;;20.00;81.70;;;;;;5011900;28;21017;-63
2021/05/28 10:38:42;;;;;;;27.47;25.60;;;20.00;77.50;;;;;;5011799;28;20541;-64
2021/05/28 10:41:29;;;;;;;26.50;24.97;;;19.80;78.40;;;;;;5012300;28;20474;-63
2021/05/28 10:44:02;;;;;;;28.13;26.23;;;19.90;76.90;;;;;;5011244;28;20446;-63
2021/05/28 10:46:29;;;;;;;28.17;26.27;;;20.30;76.40;;;;;;5011925;28;20823;-63
2021/05/28 10:49:15;;;;;;;27.60;25.90;;;20.80;72.50;;;;;;5011610;28;20523;-63
2021/05/28 10:52:01;;;;;;;26.07;24.40;;;20.50;69.00;;;;;;5011785;28;20508;-63
2021/05/28 10:54:32;;;;;;;25.53;24.13;;;20.90;69.30;;;;;;5012001;28;20445;-64
2021/05/28 10:57:40;;;;;;;26.70;25.20;;;21.00;67.90;;;;;;5011758;28;20485;-63
2021/05/28 11:00:11;;;;;;;26.30;24.80;;;21.10;65.10;;;;;;5001716;28;20481;-62
2021/05/28 11:02:45;;;;;;;26.37;24.57;;;21.20;64.90;;;;;;5011712;28;20442;-64
2021/05/28 11:05:12;;;;;;;25.70;24.07;;;21.10;64.50;;;;;;5011479;28;20508;-64
2021/05/28 11:07:43;;;;;;;26.03;24.53;;;21.40;63.80;;;;;;5011489;28;20842;-64
2021/05/28 11:10:24;;;;;;;27.23;25.57;;;20.80;60.60;;;;;;5011570;28;20469;-63
2021/05/28 11:12:51;;;;;;;24.40;23.10;;;20.60;61.70;;;;;;5011630;28;20442;-64
2021/05/28 11:15:25;;;;;;;24.40;23.00;;;21.10;61.70;;;;;;5011613;28;20445;-63
2021/05/28 11:17:59;;;;;;;26.13;24.83;;;21.30;59.80;;;;;;5011382;28;20442;-60
2021/05/28 11:20:31;;;;;;;25.27;23.43;;;22.30;59.00;;;;;;5011564;28;20462;-62
2021/05/28 11:22:59;;;;;;;24.50;23.30;;;23.10;57.40;;;;;;5011616;28;20832;-63
2021/05/28 11:25:31;;;;;;;25.70;24.20;;;23.60;56.10;;;;;;5011444;28;20453;-62
2021/05/28 11:28:08;;;;;;;25.20;23.90;;;23.60;55.00;;;;;;5011371;28;20453;-61
2021/05/28 11:30:51;;;;;;;22.50;21.40;;;22.80;54.40;;;;;;5011346;28;20465;-62
2021/05/28 11:33:41;;;;;;;22.60;21.60;;;22.50;55.10;;;;;;5011392;28;20782;-62
2021/05/28 11:36:45;;;;;;;23.53;22.03;;;22.20;54.90;;;;;;5011303;28;20485;-61
2021/05/28 11:39:20;;;;;;;23.03;22.03;;;24.20;54.50;;;;;;5011165;28;20812;-61
2021/05/28 11:41:51;;;;;;;23.17;22.03;;;25.30;51.90;;;;;;5011285;28;20953;-63
2021/05/28 11:44:20;;;;;;;23.93;22.93;;;25.30;50.60;;;;;;5011391;28;20446;-62
2021/05/28 11:46:49;;;;;;;24.63;23.53;;;26.00;50.00;;;;;;5011341;28;20518;-62
2021/05/28 11:49:16;;;;;;;24.70;23.60;;;26.80;48.20;;;;;;5011110;28;20473;-61
2021/05/28 11:51:43;;;;;;;23.50;22.57;;;28.70;44.50;;;;;;5011207;28;20546;-62
2021/05/28 11:54:23;;;;;;;25.97;24.73;;;31.50;41.20;;;;;;5011225;28;20814;-62
2021/05/28 11:56:58;;;;;;;24.73;23.53;;;30.00;38.20;;;;;;5014921;28;20917;-63
2021/05/28 11:59:49;;;;;;;24.90;23.50;;;32.20;39.90;;;;;;5014966;28;20897;-63
2021/05/28 12:02:35;;;;;;;25.47;24.37;;;34.40;32.90;;;;;;5015406;28;20809;-63
2021/05/28 12:05:02;;;;;;;25.30;24.20;;;36.60;30.00;;;;;;5014882;28;20844;-63
2021/05/28 12:07:29;;;;;;;25.13;24.02;;;36.70;28.00;;;;;;5014571;28;20299;-63
2021/05/28 12:10:05;;;;;;;25.00;23.80;;;36.40;27.80;;;;;;5014791;28;20368;-63
2021/05/28 12:12:51;;;;;;;26.33;24.90;;;33.70;28.30;;;;;;5014685;28;20256;-63
2021/05/28 12:15:19;;;;;;;25.03;23.93;;;32.90;30.00;;;;;;5014633;28;20507;-62
2021/05/28 12:17:47;;;;;;;24.93;23.93;;;33.50;29.50;;;;;;5014553;28;20449;-62
2021/05/28 12:20:15;;;;;;;24.70;23.70;;;34.70;29.30;;;;;;5014587;28;20491;-63
2021/05/28 12:23:06;;;;;;;26.13;24.70;;;34.40;28.00;;;;;;5014631;28;20456;-63
2021/05/28 12:25:35;;;;;;;26.58;25.48;;;36.10;28.50;;;;;;5014766;28;20441;-63
2021/05/28 12:28:09;;;;;;;24.90;23.90;;;39.20;26.50;;;;;;5014401;28;20206;-64
2021/05/28 12:30:36;;;;;;;26.52;25.42;;;40.40;24.80;;;;;;5014430;28;20230;-63
2021/05/28 12:33:03;;;;;;;25.42;24.40;;;40.40;23.60;;;;;;5014535;28;20202;-63
2021/05/28 12:35:30;;;;;;;26.23;25.02;;;42.50;23.10;;;;;;5014316;28;20213;-64
2021/05/28 12:38:14;;;;;;;26.50;25.38;;;44.10;21.90;;;;;;5014080;28;20595;-64